Terminal Aerodrome Forecast
Issued by NWS

Home | Current Version | Previous Version | Graphics & Text | Print | Product List | Glossary On
Versions: 1 2 3 4 5 6 7 8 9 10 11 12 13
000
FTUS43 KBIS 221122
TAFJMS
TAF
KJMS 221122Z 2212/2312 28008KT P6SM SKC
     FM221700 30018G26KT P6SM FEW090 FEW250
     FM230000 33020G29KT P6SM FEW070 FEW200
     FM230200 34010KT P6SM SKC=

USA.gov is the U.S. government's official web portal to all federal, state and local government web resources and services.